createdAt,value
2019-04-21T00:01:06.702Z,100369.99
2019-04-21T00:03:40.802Z,100370.27
2019-04-21T00:06:33.630Z,100366.67
2019-04-21T00:09:02.359Z,100367.91
2019-04-21T00:11:36.255Z,100370.23
2019-04-21T00:13:56.197Z,100371.43
2019-04-21T00:16:23.784Z,100371.85
2019-04-21T00:19:02.589Z,100370.86
2019-04-21T00:21:34.504Z,100370.39
2019-04-21T00:24:24.812Z,100369.81
2019-04-21T00:27:03.828Z,100367.80
2019-04-21T00:32:05.601Z,100367.34
2019-04-21T00:34:23.722Z,100371.90
2019-04-21T00:37:08.317Z,100371.29
2019-04-21T00:39:55.802Z,100377.07
2019-04-21T00:42:18.404Z,100369.72
2019-04-21T00:44:44.377Z,100370.20
2019-04-21T00:47:27.786Z,100366.70
2019-04-21T00:50:03.571Z,100369.02
2019-04-21T00:52:58.159Z,100371.78
2019-04-21T00:55:44.598Z,100368.55
2019-04-21T00:58:19.441Z,100373.95
2019-04-21T01:00:46.226Z,100372.13
2019-04-21T01:03:20.633Z,100373.82
2019-04-21T01:05:51.699Z,100370.56
2019-04-21T01:08:21.794Z,100375.73
2019-04-21T01:10:45.860Z,100377.84
2019-04-21T01:13:27.282Z,100372.80
2019-04-21T01:15:59.578Z,100369.89
2019-04-21T01:18:32.899Z,100377.47
2019-04-21T01:20:42.760Z,100377.02
2019-04-21T01:23:14.626Z,100376.09
2019-04-21T01:26:00.821Z,100375.04
2019-04-21T01:28:38.214Z,100377.55
2019-04-21T01:31:11.012Z,100373.69
2019-04-21T01:33:44.699Z,100378.74
2019-04-21T01:36:14.513Z,100373.22
2019-04-21T01:38:58.004Z,100369.02
2019-04-21T01:41:29.602Z,100377.56
2019-04-21T01:43:53.518Z,100368.68
2019-04-21T01:46:21.887Z,100371.55
2019-04-21T01:48:54.239Z,100369.52
2019-04-21T01:51:26.033Z,100364.71
2019-04-21T01:54:09.244Z,100366.02
2019-04-21T01:56:53.981Z,100366.63
2019-04-21T01:59:14.098Z,100368.31
2019-04-21T02:02:02.058Z,100372.14
2019-04-21T02:04:36.449Z,100373.48
2019-04-21T02:07:03.097Z,100364.00
2019-04-21T02:09:38.169Z,100364.94
2019-04-21T02:12:13.503Z,100367.60
2019-04-21T02:14:51.141Z,100360.50
2019-04-21T02:17:18.707Z,100366.03
2019-04-21T02:19:44.589Z,100365.56
2019-04-21T02:22:24.618Z,100362.19
2019-04-21T02:24:57.788Z,100366.04
2019-04-21T02:27:29.838Z,100367.60
2019-04-21T02:30:03.473Z,100368.66
2019-04-21T02:32:45.733Z,100375.16
2019-04-21T02:37:55.594Z,100378.05
2019-04-21T02:40:22.327Z,100371.08
2019-04-21T02:45:34.238Z,100375.88
2019-04-21T02:50:34.053Z,100375.87
2019-04-21T02:53:01.421Z,100377.81
2019-04-21T02:55:42.050Z,100372.63
2019-04-21T02:58:18.729Z,100376.72
2019-04-21T03:00:45.034Z,100381.04
2019-04-21T03:03:41.734Z,100379.47
2019-04-21T03:06:31.440Z,100380.45
2019-04-21T03:11:24.519Z,100383.78
2019-04-21T03:13:56.761Z,100379.33
2019-04-21T03:16:31.498Z,100385.13
2019-04-21T03:19:15.360Z,100387.34
2019-04-21T03:21:28.967Z,100384.77
2019-04-21T03:24:04.823Z,100390.54
2019-04-21T03:26:50.474Z,100391.23
2019-04-21T03:29:12.520Z,100395.45
2019-04-21T03:32:04.376Z,100397.09
2019-04-21T03:39:18.314Z,100399.61
2019-04-21T03:42:01.974Z,100400.43
2019-04-21T03:44:26.317Z,100405.60
2019-04-21T03:46:55.673Z,100401.81
2019-04-21T03:49:40.374Z,100399.50
2019-04-21T03:52:09.001Z,100401.89
2019-04-21T03:54:37.042Z,100400.88
2019-04-21T03:59:36.791Z,100399.05
2019-04-21T04:02:31.233Z,100397.05
2019-04-21T04:04:52.998Z,100396.37
2019-04-21T04:07:44.214Z,100394.72
2019-04-21T04:12:36.554Z,100387.86
2019-04-21T04:15:12.102Z,100391.47
2019-04-21T04:17:40.062Z,100389.72
2019-04-21T04:20:22.212Z,100389.06
2019-04-21T04:25:17.500Z,100387.58
2019-04-21T04:30:32.000Z,100387.30
2019-04-21T04:33:02.518Z,100388.22
2019-04-21T04:35:46.210Z,100387.52
2019-04-21T04:38:03.338Z,100385.58
2019-04-21T04:41:04.347Z,100388.55
2019-04-21T04:43:30.478Z,100386.08
2019-04-21T04:48:29.168Z,100386.22
2019-04-21T04:51:02.040Z,100387.14
2019-04-21T04:56:12.338Z,100390.65
2019-04-21T04:58:59.562Z,100386.45
2019-04-21T05:14:18.282Z,100390.33
2019-04-21T05:23:59.933Z,100394.80
2019-04-21T05:26:34.546Z,100391.33
2019-04-21T05:29:01.844Z,100402.67
2019-04-21T05:31:50.267Z,100402.05
2019-04-21T05:34:27.398Z,100402.15
2019-04-21T05:37:02.651Z,100408.42
2019-04-21T05:39:36.095Z,100411.45
2019-04-21T05:42:00.727Z,100414.97
2019-04-21T05:44:59.918Z,100406.55
2019-04-21T05:47:25.005Z,100414.49
2019-04-21T05:49:49.892Z,100412.52
2019-04-21T05:52:22.794Z,100405.16
2019-04-21T05:55:03.971Z,100410.74
2019-04-21T05:57:29.116Z,100419.72
2019-04-21T06:00:06.189Z,100418.52
2019-04-21T06:02:36.663Z,100416.16
2019-04-21T06:05:47.399Z,100421.44
2019-04-21T06:07:41.271Z,100413.98
2019-04-21T06:10:18.371Z,100421.04
2019-04-21T06:12:53.813Z,100423.94
2019-04-21T06:15:19.695Z,100427.63
2019-04-21T06:17:57.878Z,100419.60
2019-04-21T06:20:28.787Z,100430.66
2019-04-21T06:23:00.851Z,100427.17
2019-04-21T06:25:57.508Z,100426.87
2019-04-21T06:28:03.601Z,100430.67
2019-04-21T06:30:42.389Z,100433.08
2019-04-21T06:33:01.746Z,100437.58
2019-04-21T06:36:09.006Z,100438.44
2019-04-21T06:38:28.429Z,100439.41
2019-04-21T06:40:48.440Z,100447.99
2019-04-21T06:43:40.371Z,100445.28
2019-04-21T06:45:54.219Z,100447.65
2019-04-21T06:48:37.313Z,100451.63
2019-04-21T06:51:06.977Z,100453.58
2019-04-21T06:53:40.847Z,100449.43
2019-04-21T06:56:10.482Z,100452.16
2019-04-21T06:58:35.578Z,100450.50
2019-04-21T07:01:15.843Z,100450.52
2019-04-21T07:03:49.306Z,100450.83
2019-04-21T07:06:12.704Z,100456.52
2019-04-21T07:08:52.940Z,100458.72
2019-04-21T07:11:19.871Z,100454.38
2019-04-21T07:14:01.930Z,100450.95
2019-04-21T07:16:25.699Z,100453.13
2019-04-21T07:19:07.150Z,100455.77
2019-04-21T07:21:32.461Z,100459.73
2019-04-21T07:24:05.408Z,100452.20
2019-04-21T07:26:36.912Z,100463.06
2019-04-21T07:29:17.115Z,100455.20
2019-04-21T07:31:52.521Z,100459.89
2019-04-21T07:34:19.753Z,100455.05
2019-04-21T07:36:59.643Z,100462.21
2019-04-21T07:39:18.509Z,100451.47
2019-04-21T07:41:47.111Z,100451.66
2019-04-21T07:44:21.032Z,100450.86
2019-04-21T07:46:45.280Z,100457.17
2019-04-21T07:49:46.711Z,100461.40
2019-04-21T07:52:35.108Z,100453.53
2019-04-21T07:57:35.154Z,100451.01
2019-04-21T08:00:26.880Z,100444.48
2019-04-21T08:02:40.639Z,100456.36
2019-04-21T08:07:51.972Z,100449.62
2019-04-21T08:10:15.618Z,100455.02
2019-04-21T08:12:48.914Z,100451.68
2019-04-21T08:15:30.628Z,100441.94
2019-04-21T08:17:53.360Z,100439.64
2019-04-21T08:20:31.389Z,100444.24
2019-04-21T08:23:11.060Z,100444.30
2019-04-21T08:25:34.909Z,100439.84
2019-04-21T08:28:05.712Z,100446.27
2019-04-21T08:30:54.356Z,100446.78
2019-04-21T08:33:26.241Z,100449.22
2019-04-21T08:36:06.008Z,100439.02
2019-04-21T08:38:20.059Z,100434.34
2019-04-21T08:40:51.073Z,100435.29
2019-04-21T08:43:30.676Z,100429.23
2019-04-21T08:45:57.672Z,100432.38
2019-04-21T08:48:33.443Z,100439.38
2019-04-21T08:51:18.526Z,100429.47
2019-04-21T08:53:34.898Z,100438.64
2019-04-21T08:56:09.996Z,100424.72
2019-04-21T08:59:07.484Z,100432.56
2019-04-21T09:01:50.083Z,100436.59
2019-04-21T09:04:23.364Z,100430.58
2019-04-21T09:09:31.956Z,100438.06
2019-04-21T09:12:02.707Z,100429.80
2019-04-21T09:14:36.397Z,100431.38
2019-04-21T09:17:01.656Z,100425.73
2019-04-21T09:22:13.199Z,100425.37
2019-04-21T09:24:43.013Z,100426.60
2019-04-21T09:27:15.853Z,100429.55
2019-04-21T09:29:38.310Z,100416.75
2019-04-21T09:32:03.423Z,100415.12
2019-04-21T09:34:38.535Z,100422.30
2019-04-21T09:37:23.549Z,100419.99
2019-04-21T09:39:43.720Z,100418.21
2019-04-21T09:42:11.559Z,100419.79
2019-04-21T09:44:44.389Z,100415.58
2019-04-21T09:47:19.027Z,100413.89
2019-04-21T09:49:47.456Z,100407.78
2019-04-21T09:52:20.933Z,100414.04
2019-04-21T09:54:58.635Z,100418.62
2019-04-21T09:57:34.685Z,100406.98
2019-04-21T10:00:02.471Z,100405.97
2019-04-21T10:02:39.957Z,100413.66
2019-04-21T10:05:02.316Z,100407.45
2019-04-21T10:07:37.046Z,100417.10
2019-04-21T10:10:08.358Z,100412.52
2019-04-21T10:12:39.175Z,100413.78
2019-04-21T10:15:10.674Z,100400.78
2019-04-21T10:17:43.953Z,100408.18
2019-04-21T10:20:15.028Z,100401.72
2019-04-21T10:22:46.758Z,100408.03
2019-04-21T10:25:18.688Z,100396.52
2019-04-21T10:27:49.650Z,100396.76
2019-04-21T10:30:20.551Z,100391.17
2019-04-21T10:32:54.393Z,100391.69
2019-04-21T10:35:26.204Z,100390.60
2019-04-21T10:38:06.748Z,100393.98
2019-04-21T10:40:33.141Z,100395.72
2019-04-21T10:43:01.650Z,100398.93
2019-04-21T10:45:32.784Z,100398.05
2019-04-21T10:48:05.145Z,100390.28
2019-04-21T10:50:37.041Z,100382.91
2019-04-21T10:53:09.345Z,100387.77
2019-04-21T10:55:55.693Z,100386.16
2019-04-21T10:58:20.366Z,100380.59
2019-04-21T11:00:52.785Z,100397.96
2019-04-21T11:03:35.304Z,100396.64
2019-04-21T11:06:08.498Z,100380.50
2019-04-21T11:08:44.120Z,100374.26
2019-04-21T11:11:14.135Z,100380.86
2019-04-21T11:13:46.290Z,100370.94
2019-04-21T11:16:19.331Z,100380.16
2019-04-21T11:18:49.955Z,100369.23
2019-04-21T11:21:20.853Z,100368.12
2019-04-21T11:23:52.208Z,100367.38
2019-04-21T11:26:24.522Z,100368.30
2019-04-21T11:28:58.902Z,100357.95
2019-04-21T11:31:29.616Z,100358.30
2019-04-21T11:34:00.909Z,100350.81
2019-04-21T11:36:33.171Z,100355.75
2019-04-21T11:39:27.232Z,100353.67
2019-04-21T11:41:45.782Z,100353.83
2019-04-21T11:44:18.294Z,100356.37
2019-04-21T11:46:52.179Z,100356.05
2019-04-21T11:49:24.244Z,100347.29
2019-04-21T11:51:56.495Z,100343.22
2019-04-21T11:54:28.792Z,100339.83
2019-04-21T11:57:03.166Z,100328.86
2019-04-21T11:59:33.449Z,100338.13
2019-04-21T12:02:05.575Z,100335.52
2019-04-21T12:04:36.371Z,100334.27
2019-04-21T12:07:07.270Z,100325.63
2019-04-21T12:09:39.470Z,100333.02
2019-04-21T12:12:11.598Z,100324.89
2019-04-21T12:14:43.827Z,100322.05
2019-04-21T12:17:16.054Z,100319.83
2019-04-21T12:19:48.552Z,100315.33
2019-04-21T12:22:23.842Z,100321.65
2019-04-21T12:24:51.743Z,100317.98
2019-04-21T12:27:22.530Z,100309.89
2019-04-21T12:29:53.479Z,100311.77
2019-04-21T12:32:26.327Z,100316.31
2019-04-21T12:34:57.823Z,100318.25
2019-04-21T12:37:28.993Z,100315.22
2019-04-21T12:40:00.800Z,100312.93
2019-04-21T12:42:32.411Z,100306.37
2019-04-21T12:45:08.169Z,100316.14
2019-04-21T12:47:40.186Z,100308.08
2019-04-21T12:50:12.773Z,100302.98
2019-04-21T12:52:43.660Z,100309.64
2019-04-21T12:55:15.467Z,100299.83
2019-04-21T12:57:47.581Z,100310.39
2019-04-21T13:00:20.900Z,100301.44
2019-04-21T13:02:52.015Z,100300.20
2019-04-21T13:05:22.805Z,100295.13
2019-04-21T13:07:53.623Z,100305.13
2019-04-21T13:10:24.436Z,100305.05
2019-04-21T13:12:56.287Z,100307.27
2019-04-21T13:15:27.404Z,100299.68
2019-04-21T13:17:58.482Z,100300.16
2019-04-21T13:20:32.071Z,100311.05
2019-04-21T13:23:03.815Z,100310.27
2019-04-21T13:25:35.939Z,100309.89
2019-04-21T13:28:07.040Z,100302.44
2019-04-21T13:30:40.226Z,100299.95
2019-04-21T13:33:11.368Z,100300.75
2019-04-21T13:35:44.496Z,100307.16
2019-04-21T13:38:24.361Z,100308.50
2019-04-21T13:41:22.847Z,100296.59
2019-04-21T13:43:39.174Z,100298.73
2019-04-21T13:46:10.270Z,100297.36
2019-04-21T13:48:42.401Z,100299.73
2019-04-21T13:51:13.563Z,100295.11
2019-04-21T13:53:45.653Z,100290.52
2019-04-21T13:56:18.361Z,100295.74
2019-04-21T13:58:50.496Z,100295.80
2019-04-21T14:01:27.687Z,100293.67
2019-04-21T14:03:59.407Z,100286.58
2019-04-21T14:06:32.138Z,100288.23
2019-04-21T14:09:07.311Z,100292.88
2019-04-21T14:11:38.076Z,100293.61
2019-04-21T14:14:10.265Z,100297.61
2019-04-21T14:16:42.230Z,100289.86
2019-04-21T14:19:13.207Z,100294.20
2019-04-21T14:21:46.423Z,100294.17
2019-04-21T14:24:17.217Z,100289.91
2019-04-21T14:26:48.025Z,100293.39
2019-04-21T14:29:21.661Z,100292.19
2019-04-21T14:31:52.549Z,100295.48
2019-04-21T14:34:23.865Z,100287.50
2019-04-21T14:36:55.008Z,100287.33
2019-04-21T14:39:26.410Z,100285.86
2019-04-21T14:41:58.138Z,100292.96
2019-04-21T14:44:29.225Z,100299.58
2019-04-21T14:47:01.380Z,100287.73
2019-04-21T14:49:53.214Z,100290.72
2019-04-21T14:52:26.852Z,100288.78
2019-04-21T14:55:02.841Z,100287.20
2019-04-21T14:57:33.596Z,100292.86
2019-04-21T15:00:13.420Z,100294.73
2019-04-21T15:02:45.476Z,100286.84
2019-04-21T15:05:17.567Z,100297.75
2019-04-21T15:07:48.959Z,100295.19
2019-04-21T15:10:25.256Z,100286.47
2019-04-21T15:12:52.109Z,100295.90
2019-04-21T15:15:25.569Z,100293.11
2019-04-21T15:17:57.817Z,100291.77
2019-04-21T15:20:29.028Z,100289.48
2019-04-21T15:23:00.121Z,100288.95
2019-04-21T15:25:32.235Z,100284.78
2019-04-21T15:28:05.442Z,100283.63
2019-04-21T15:30:36.601Z,100281.82
2019-04-21T15:33:08.556Z,100286.30
2019-04-21T15:35:40.681Z,100285.31
2019-04-21T15:38:11.842Z,100284.15
2019-04-21T15:40:51.522Z,100289.36
2019-04-21T15:43:15.081Z,100279.84
2019-04-21T15:45:46.774Z,100285.87
2019-04-21T15:48:18.249Z,100285.26
2019-04-21T15:50:51.531Z,100288.77
2019-04-21T15:53:23.603Z,100284.44
2019-04-21T15:55:58.993Z,100289.09
2019-04-21T15:58:32.421Z,100288.25
2019-04-21T16:01:04.851Z,100299.70
2019-04-21T16:03:36.534Z,100296.22
2019-04-21T16:06:07.705Z,100293.06
2019-04-21T16:08:39.531Z,100298.75
2019-04-21T16:11:11.364Z,100296.91
2019-04-21T16:13:43.524Z,100299.44
2019-04-21T16:16:16.751Z,100296.11
2019-04-21T16:18:47.907Z,100298.95
2019-04-21T16:21:22.153Z,100303.97
2019-04-21T16:23:54.144Z,100302.16
2019-04-21T16:26:26.443Z,100304.99
2019-04-21T16:28:57.518Z,100300.47
2019-04-21T16:31:28.157Z,100310.81
2019-04-21T16:33:58.903Z,100305.97
2019-04-21T16:36:29.635Z,100315.57
2019-04-21T16:39:01.737Z,100317.07
2019-04-21T16:41:33.956Z,100316.06
2019-04-21T16:44:05.167Z,100323.52
2019-04-21T16:46:35.806Z,100319.63
2019-04-21T16:49:07.541Z,100327.48
2019-04-21T16:51:38.476Z,100322.08
2019-04-21T16:54:14.078Z,100324.59
2019-04-21T16:56:50.077Z,100322.09
2019-04-21T16:59:22.524Z,100320.11
2019-04-21T17:01:54.447Z,100320.16
2019-04-21T17:04:28.617Z,100326.09
2019-04-21T17:07:00.871Z,100328.92
2019-04-21T17:09:32.630Z,100326.36
2019-04-21T17:12:07.404Z,100330.56
2019-04-21T17:14:53.657Z,100330.66
2019-04-21T17:17:32.279Z,100335.73
2019-04-21T17:19:46.566Z,100335.31
2019-04-21T17:22:13.871Z,100338.91
2019-04-21T17:24:46.391Z,100341.41
2019-04-21T17:27:17.484Z,100348.25
2019-04-21T17:29:48.681Z,100345.34
2019-04-21T17:32:20.478Z,100350.91
2019-04-21T17:34:52.161Z,100354.17
2019-04-21T17:37:25.125Z,100352.28
2019-04-21T17:39:56.508Z,100352.75
2019-04-21T17:42:36.365Z,100350.86
2019-04-21T17:45:01.306Z,100356.42
2019-04-21T17:47:45.004Z,100354.64
2019-04-21T17:50:23.283Z,100351.40
2019-04-21T17:53:06.541Z,100358.63
2019-04-21T17:55:40.650Z,100357.99
2019-04-21T17:58:27.268Z,100361.44
2019-04-21T18:06:06.372Z,100360.61
2019-04-21T18:08:47.420Z,100355.41
2019-04-21T18:11:15.382Z,100359.04
2019-04-21T18:13:37.592Z,100359.04
2019-04-21T18:16:20.191Z,100362.37
2019-04-21T18:18:41.181Z,100364.18
2019-04-21T18:21:14.539Z,100366.08
2019-04-21T18:24:00.138Z,100358.08
2019-04-21T18:26:38.015Z,100361.74
2019-04-21T18:29:03.417Z,100362.70
2019-04-21T18:31:44.819Z,100365.71
2019-04-21T18:34:22.798Z,100373.38
2019-04-21T18:36:55.602Z,100367.47
2019-04-21T18:39:45.314Z,100362.16
2019-04-21T18:42:26.255Z,100365.70
2019-04-21T18:45:37.242Z,100371.49
2019-04-21T18:48:01.385Z,100370.16
2019-04-21T18:50:41.759Z,100370.41
2019-04-21T18:53:25.616Z,100376.60
2019-04-21T18:55:57.536Z,100376.03
2019-04-21T18:58:20.073Z,100369.02
2019-04-21T19:00:52.943Z,100367.70
2019-04-21T19:03:28.137Z,100373.30
2019-04-21T19:06:05.145Z,100374.12
2019-04-21T19:08:53.632Z,100371.09
2019-04-21T19:14:32.322Z,100374.20
2019-04-21T19:17:00.484Z,100368.03
2019-04-21T19:19:54.364Z,100373.92
2019-04-21T19:22:40.181Z,100372.63
2019-04-21T19:25:16.416Z,100368.89
2019-04-21T19:27:53.273Z,100370.00
2019-04-21T19:30:29.825Z,100369.63
2019-04-21T19:32:59.395Z,100371.19
2019-04-21T19:35:14.955Z,100366.37
2019-04-21T19:37:56.416Z,100376.17
2019-04-21T19:40:40.857Z,100380.50
2019-04-21T19:43:07.048Z,100374.27
2019-04-21T19:45:42.262Z,100373.98
2019-04-21T19:48:18.426Z,100376.77
2019-04-21T19:50:57.845Z,100371.33
2019-04-21T19:53:24.281Z,100377.17
2019-04-21T19:55:40.610Z,100376.60
2019-04-21T19:58:12.636Z,100373.67
2019-04-21T20:00:44.472Z,100376.09
2019-04-21T20:03:16.495Z,100380.85
2019-04-21T20:05:59.275Z,100376.83
2019-04-21T20:08:36.719Z,100386.61
2019-04-21T20:11:10.448Z,100381.43
2019-04-21T20:14:30.705Z,100386.17
2019-04-21T20:16:18.976Z,100386.37
2019-04-21T20:18:41.650Z,100387.30
2019-04-21T20:21:06.112Z,100388.77
2019-04-21T20:23:39.672Z,100382.20
2019-04-21T20:26:11.525Z,100387.09
2019-04-21T20:28:54.703Z,100390.67
2019-04-21T20:31:36.072Z,100389.38
2019-04-21T20:34:21.231Z,100392.70
2019-04-21T20:36:47.637Z,100392.78
2019-04-21T20:39:08.292Z,100393.89
2019-04-21T20:41:47.663Z,100396.00
2019-04-21T20:44:23.073Z,100393.22
2019-04-21T20:46:59.654Z,100396.18
2019-04-21T20:49:27.306Z,100394.58
2019-04-21T20:52:10.814Z,100399.98
2019-04-21T20:54:44.040Z,100398.52
2019-04-21T20:57:11.469Z,100398.22
2019-04-21T20:59:43.924Z,100391.89
2019-04-21T21:02:19.957Z,100396.33
2019-04-21T21:04:45.707Z,100398.07
2019-04-21T21:07:40.493Z,100401.52
2019-04-21T21:10:04.983Z,100397.19
2019-04-21T21:12:42.969Z,100401.14
2019-04-21T21:15:01.181Z,100399.07
2019-04-21T21:17:48.419Z,100395.73
2019-04-21T21:20:21.361Z,100401.25
2019-04-21T21:22:42.280Z,100405.19
2019-04-21T21:25:25.837Z,100405.63
2019-04-21T21:27:48.273Z,100400.22
2019-04-21T21:30:23.140Z,100399.99
2019-04-21T21:33:05.684Z,100402.98
2019-04-21T21:35:34.590Z,100403.25
2019-04-21T21:38:09.949Z,100408.14
2019-04-21T21:40:36.620Z,100400.26
2019-04-21T21:42:57.325Z,100398.94
2019-04-21T21:45:30.648Z,100394.13
2019-04-21T21:48:20.818Z,100396.73
2019-04-21T21:50:45.915Z,100401.77
2019-04-21T21:53:14.497Z,100397.41
2019-04-21T21:55:42.654Z,100397.21
2019-04-21T21:58:19.380Z,100391.75
2019-04-21T22:00:54.639Z,100395.89
2019-04-21T22:03:28.375Z,100391.81
2019-04-21T22:06:07.300Z,100399.78
2019-04-21T22:08:32.378Z,100398.16
2019-04-21T22:11:03.334Z,100396.36
2019-04-21T22:13:47.530Z,100396.79
2019-04-21T22:16:14.394Z,100398.97
2019-04-21T22:19:11.458Z,100402.66
2019-04-21T22:21:38.579Z,100395.89
2019-04-21T22:23:57.651Z,100403.68
2019-04-21T22:26:21.478Z,100408.37
2019-04-21T22:28:53.807Z,100401.44
2019-04-21T22:31:31.582Z,100400.12
2019-04-21T22:34:04.821Z,100406.95
2019-04-21T22:36:44.437Z,100401.34
2019-04-21T22:39:24.764Z,100403.91
2019-04-21T22:41:45.273Z,100404.09
2019-04-21T22:44:18.762Z,100398.30
2019-04-21T22:46:59.970Z,100400.88
2019-04-21T22:49:23.731Z,100396.20
2019-04-21T22:51:55.672Z,100394.53
2019-04-21T22:54:32.618Z,100398.21
2019-04-21T22:57:05.227Z,100393.46
2019-04-21T22:59:32.421Z,100388.36
2019-04-21T23:02:06.363Z,100399.21
2019-04-21T23:04:43.513Z,100393.15
2019-04-21T23:07:13.573Z,100396.41
2019-04-21T23:09:42.955Z,100404.80
2019-04-21T23:12:20.431Z,100396.98
2019-04-21T23:14:55.483Z,100396.41
2019-04-21T23:17:38.928Z,100402.61
2019-04-21T23:20:10.258Z,100403.57
2019-04-21T23:22:51.369Z,100403.95
2019-04-21T23:25:13.623Z,100399.98
2019-04-21T23:27:46.971Z,100401.41
2019-04-21T23:30:32.274Z,100399.87
2019-04-21T23:32:48.821Z,100409.29
2019-04-21T23:35:18.016Z,100408.23
2019-04-21T23:37:51.041Z,100408.23
2019-04-21T23:40:21.357Z,100408.70
2019-04-21T23:42:49.203Z,100409.77
2019-04-21T23:45:25.112Z,100409.47
2019-04-21T23:48:10.866Z,100414.22
2019-04-21T23:50:37.909Z,100415.73
2019-04-21T23:53:01.645Z,100415.61
2019-04-21T23:55:32.464Z,100415.80
2019-04-21T23:58:13.401Z,100421.97
